sensor_id;sensor_type;location;lat;lon;timestamp;temperature;humidity
78479;SHT31;67769;51.972;5.668;2023-06-22T00:01:28;23.3;55.8
78479;SHT31;67769;51.972;5.668;2023-06-22T00:04:00;23.2;55.9
78479;SHT31;67769;51.972;5.668;2023-06-22T00:06:31;23.2;55.9
78479;SHT31;67769;51.972;5.668;2023-06-22T00:09:00;23.2;55.8
78479;SHT31;67769;51.972;5.668;2023-06-22T00:11:30;23.2;56.0
78479;SHT31;67769;51.972;5.668;2023-06-22T00:14:02;23.1;56.2
78479;SHT31;67769;51.972;5.668;2023-06-22T00:16:33;23.1;56.7
78479;SHT31;67769;51.972;5.668;2023-06-22T00:19:04;23.1;56.2
78479;SHT31;67769;51.972;5.668;2023-06-22T00:26:24;23.3;55.7
78479;SHT31;67769;51.972;5.668;2023-06-22T00:28:54;23.3;55.1
78479;SHT31;67769;51.972;5.668;2023-06-22T00:31:23;23.3;55.0
78479;SHT31;67769;51.972;5.668;2023-06-22T00:33:53;23.3;55.1
78479;SHT31;67769;51.972;5.668;2023-06-22T00:36:23;23.3;55.0
78479;SHT31;67769;51.972;5.668;2023-06-22T00:38:52;23.2;55.2
78479;SHT31;67769;51.972;5.668;2023-06-22T00:41:22;23.2;55.3
78479;SHT31;67769;51.972;5.668;2023-06-22T00:43:53;23.2;55.3
78479;SHT31;67769;51.972;5.668;2023-06-22T00:46:23;23.1;55.4
78479;SHT31;67769;51.972;5.668;2023-06-22T00:48:53;23.1;55.4
78479;SHT31;67769;51.972;5.668;2023-06-22T00:51:24;23.1;55.6
78479;SHT31;67769;51.972;5.668;2023-06-22T00:53:54;23.0;55.4
78479;SHT31;67769;51.972;5.668;2023-06-22T00:56:24;23.0;55.7
78479;SHT31;67769;51.972;5.668;2023-06-22T00:58:58;23.0;55.7
78479;SHT31;67769;51.972;5.668;2023-06-22T01:01:31;22.9;55.6
78479;SHT31;67769;51.972;5.668;2023-06-22T01:04:01;22.9;55.9
78479;SHT31;67769;51.972;5.668;2023-06-22T01:06:41;22.9;56.0
78479;SHT31;67769;51.972;5.668;2023-06-22T01:09:15;22.8;56.1
78479;SHT31;67769;51.972;5.668;2023-06-22T01:11:56;22.8;56.2
78479;SHT31;67769;51.972;5.668;2023-06-22T01:14:33;22.8;56.3
78479;SHT31;67769;51.972;5.668;2023-06-22T01:17:07;22.7;56.4
78479;SHT31;67769;51.972;5.668;2023-06-22T01:19:46;22.7;56.6
78479;SHT31;67769;51.972;5.668;2023-06-22T01:22:17;22.7;56.5
78479;SHT31;67769;51.972;5.668;2023-06-22T01:24:57;22.6;56.8
78479;SHT31;67769;51.972;5.668;2023-06-22T01:27:36;22.6;56.9
78479;SHT31;67769;51.972;5.668;2023-06-22T01:30:15;22.6;57.1
78479;SHT31;67769;51.972;5.668;2023-06-22T01:32:49;22.6;57.0
78479;SHT31;67769;51.972;5.668;2023-06-22T01:35:20;22.6;57.1
78479;SHT31;67769;51.972;5.668;2023-06-22T01:37:51;22.6;56.9
78479;SHT31;67769;51.972;5.668;2023-06-22T01:40:21;22.6;56.8
78479;SHT31;67769;51.972;5.668;2023-06-22T01:42:54;22.6;56.7
78479;SHT31;67769;51.972;5.668;2023-06-22T01:45:25;22.6;56.8
78479;SHT31;67769;51.972;5.668;2023-06-22T01:47:58;22.6;56.6
78479;SHT31;67769;51.972;5.668;2023-06-22T01:50:28;22.6;56.5
78479;SHT31;67769;51.972;5.668;2023-06-22T01:52:58;22.6;56.4
78479;SHT31;67769;51.972;5.668;2023-06-22T01:55:27;22.5;56.7
78479;SHT31;67769;51.972;5.668;2023-06-22T01:57:57;22.5;56.9
78479;SHT31;67769;51.972;5.668;2023-06-22T02:00:28;22.4;56.9
78479;SHT31;67769;51.972;5.668;2023-06-22T02:03:07;22.4;56.9
78479;SHT31;67769;51.972;5.668;2023-06-22T02:05:53;22.4;57.1
78479;SHT31;67769;51.972;5.668;2023-06-22T02:08:19;22.3;57.3
78479;SHT31;67769;51.972;5.668;2023-06-22T02:10:51;22.3;57.5
78479;SHT31;67769;51.972;5.668;2023-06-22T02:13:24;22.3;57.4
78479;SHT31;67769;51.972;5.668;2023-06-22T02:15:57;22.3;57.5
78479;SHT31;67769;51.972;5.668;2023-06-22T02:18:26;22.2;57.5
78479;SHT31;67769;51.972;5.668;2023-06-22T02:20:56;22.2;57.5
78479;SHT31;67769;51.972;5.668;2023-06-22T02:23:26;22.1;57.7
78479;SHT31;67769;51.972;5.668;2023-06-22T02:25:58;22.1;57.6
78479;SHT31;67769;51.972;5.668;2023-06-22T02:28:27;22.1;58.0
78479;SHT31;67769;51.972;5.668;2023-06-22T02:30:57;22.0;57.9
78479;SHT31;67769;51.972;5.668;2023-06-22T02:33:27;22.0;58.5
78479;SHT31;67769;51.972;5.668;2023-06-22T02:35:56;21.9;58.5
78479;SHT31;67769;51.972;5.668;2023-06-22T02:38:26;21.9;58.6
78479;SHT31;67769;51.972;5.668;2023-06-22T02:41:00;21.9;58.6
78479;SHT31;67769;51.972;5.668;2023-06-22T02:43:30;21.9;58.6
78479;SHT31;67769;51.972;5.668;2023-06-22T02:46:01;21.8;58.9
78479;SHT31;67769;51.972;5.668;2023-06-22T02:48:31;21.8;58.9
78479;SHT31;67769;51.972;5.668;2023-06-22T02:51:00;21.8;58.8
78479;SHT31;67769;51.972;5.668;2023-06-22T02:53:30;21.8;58.9
78479;SHT31;67769;51.972;5.668;2023-06-22T02:56:00;21.8;59.0
78479;SHT31;67769;51.972;5.668;2023-06-22T02:58:31;21.7;59.0
78479;SHT31;67769;51.972;5.668;2023-06-22T03:01:06;21.7;58.8
78479;SHT31;67769;51.972;5.668;2023-06-22T03:03:35;21.7;59.2
78479;SHT31;67769;51.972;5.668;2023-06-22T03:06:05;21.7;59.5
78479;SHT31;67769;51.972;5.668;2023-06-22T03:08:34;21.6;59.4
78479;SHT31;67769;51.972;5.668;2023-06-22T03:11:04;21.6;59.4
78479;SHT31;67769;51.972;5.668;2023-06-22T03:13:33;21.6;59.7
78479;SHT31;67769;51.972;5.668;2023-06-22T03:16:03;21.6;59.8
78479;SHT31;67769;51.972;5.668;2023-06-22T03:18:33;21.6;60.0
78479;SHT31;67769;51.972;5.668;2023-06-22T03:21:03;21.5;60.0
78479;SHT31;67769;51.972;5.668;2023-06-22T03:23:32;21.5;59.7
78479;SHT31;67769;51.972;5.668;2023-06-22T03:26:02;21.5;60.0
78479;SHT31;67769;51.972;5.668;2023-06-22T03:28:32;21.5;60.0
78479;SHT31;67769;51.972;5.668;2023-06-22T03:31:03;21.5;60.0
78479;SHT31;67769;51.972;5.668;2023-06-22T03:33:34;21.5;60.1
78479;SHT31;67769;51.972;5.668;2023-06-22T03:36:03;21.5;60.2
78479;SHT31;67769;51.972;5.668;2023-06-22T03:38:33;21.5;60.3
78479;SHT31;67769;51.972;5.668;2023-06-22T03:41:03;21.5;60.4
78479;SHT31;67769;51.972;5.668;2023-06-22T03:43:33;21.6;60.2
78479;SHT31;67769;51.972;5.668;2023-06-22T03:46:02;21.6;59.9
78479;SHT31;67769;51.972;5.668;2023-06-22T03:48:32;21.6;59.8
78479;SHT31;67769;51.972;5.668;2023-06-22T03:51:02;21.6;59.8
78479;SHT31;67769;51.972;5.668;2023-06-22T03:53:32;21.6;59.6
78479;SHT31;67769;51.972;5.668;2023-06-22T03:56:02;21.6;59.7
78479;SHT31;67769;51.972;5.668;2023-06-22T03:58:33;21.6;59.3
78479;SHT31;67769;51.972;5.668;2023-06-22T04:01:04;21.6;59.3
78479;SHT31;67769;51.972;5.668;2023-06-22T04:03:34;21.6;59.8
78479;SHT31;67769;51.972;5.668;2023-06-22T04:06:03;21.6;60.0
78479;SHT31;67769;51.972;5.668;2023-06-22T04:08:35;21.6;60.2
78479;SHT31;67769;51.972;5.668;2023-06-22T04:11:04;21.6;60.3
78479;SHT31;67769;51.972;5.668;2023-06-22T04:13:34;21.5;60.4
78479;SHT31;67769;51.972;5.668;2023-06-22T04:16:04;21.5;60.5
78479;SHT31;67769;51.972;5.668;2023-06-22T04:18:33;21.5;60.8
78479;SHT31;67769;51.972;5.668;2023-06-22T04:21:06;21.5;61.1
78479;SHT31;67769;51.972;5.668;2023-06-22T04:23:36;21.5;61.2
78479;SHT31;67769;51.972;5.668;2023-06-22T04:26:06;21.5;61.4
78479;SHT31;67769;51.972;5.668;2023-06-22T04:28:35;21.5;61.6
78479;SHT31;67769;51.972;5.668;2023-06-22T04:31:05;21.5;61.8
78479;SHT31;67769;51.972;5.668;2023-06-22T04:33:34;21.5;61.9
78479;SHT31;67769;51.972;5.668;2023-06-22T04:36:10;21.5;62.0
78479;SHT31;67769;51.972;5.668;2023-06-22T04:38:41;21.5;61.9
78479;SHT31;67769;51.972;5.668;2023-06-22T04:41:11;21.5;62.2
78479;SHT31;67769;51.972;5.668;2023-06-22T04:43:46;21.6;62.1
78479;SHT31;67769;51.972;5.668;2023-06-22T04:46:21;21.6;62.3
78479;SHT31;67769;51.972;5.668;2023-06-22T04:48:50;21.6;63.0
78479;SHT31;67769;51.972;5.668;2023-06-22T04:51:20;21.7;63.3
78479;SHT31;67769;51.972;5.668;2023-06-22T04:53:49;21.8;63.5
78479;SHT31;67769;51.972;5.668;2023-06-22T04:56:21;21.9;63.2
78479;SHT31;67769;51.972;5.668;2023-06-22T04:58:55;22.1;62.8
78479;SHT31;67769;51.972;5.668;2023-06-22T05:01:25;22.2;62.1
78479;SHT31;67769;51.972;5.668;2023-06-22T05:03:54;22.4;61.7
78479;SHT31;67769;51.972;5.668;2023-06-22T05:06:24;22.6;61.3
78479;SHT31;67769;51.972;5.668;2023-06-22T05:08:54;22.7;60.8
78479;SHT31;67769;51.972;5.668;2023-06-22T05:11:27;22.8;60.5
78479;SHT31;67769;51.972;5.668;2023-06-22T05:13:56;22.9;60.2
78479;SHT31;67769;51.972;5.668;2023-06-22T05:16:26;23.0;59.8
78479;SHT31;67769;51.972;5.668;2023-06-22T05:18:56;23.1;60.0
78479;SHT31;67769;51.972;5.668;2023-06-22T05:21:26;23.2;59.4
78479;SHT31;67769;51.972;5.668;2023-06-22T05:23:57;23.3;59.3
78479;SHT31;67769;51.972;5.668;2023-06-22T05:26:28;23.3;59.1
78479;SHT31;67769;51.972;5.668;2023-06-22T05:28:58;23.4;58.7
78479;SHT31;67769;51.972;5.668;2023-06-22T05:31:28;23.5;58.9
78479;SHT31;67769;51.972;5.668;2023-06-22T05:33:58;23.5;58.5
78479;SHT31;67769;51.972;5.668;2023-06-22T05:36:29;23.6;58.4
78479;SHT31;67769;51.972;5.668;2023-06-22T05:38:58;23.8;58.2
78479;SHT31;67769;51.972;5.668;2023-06-22T05:41:30;23.9;58.1
78479;SHT31;67769;51.972;5.668;2023-06-22T05:43:59;24.1;57.5
78479;SHT31;67769;51.972;5.668;2023-06-22T05:46:29;24.3;57.0
78479;SHT31;67769;51.972;5.668;2023-06-22T05:48:59;24.5;56.3
78479;SHT31;67769;51.972;5.668;2023-06-22T05:51:29;24.8;56.0
78479;SHT31;67769;51.972;5.668;2023-06-22T05:53:58;25.0;54.9
78479;SHT31;67769;51.972;5.668;2023-06-22T05:56:28;25.2;54.2
78479;SHT31;67769;51.972;5.668;2023-06-22T05:58:57;25.5;54.2
78479;SHT31;67769;51.972;5.668;2023-06-22T06:01:27;25.7;52.7
78479;SHT31;67769;51.972;5.668;2023-06-22T06:03:58;26.0;52.3
78479;SHT31;67769;51.972;5.668;2023-06-22T06:06:28;26.2;51.6
78479;SHT31;67769;51.972;5.668;2023-06-22T06:08:57;26.5;50.9
78479;SHT31;67769;51.972;5.668;2023-06-22T06:11:27;26.7;50.0
78479;SHT31;67769;51.972;5.668;2023-06-22T06:13:56;26.9;49.9
78479;SHT31;67769;51.972;5.668;2023-06-22T06:16:26;27.1;49.4
78479;SHT31;67769;51.972;5.668;2023-06-22T06:18:55;27.3;48.9
78479;SHT31;67769;51.972;5.668;2023-06-22T06:21:25;27.5;48.5
78479;SHT31;67769;51.972;5.668;2023-06-22T06:23:55;27.7;48.5
78479;SHT31;67769;51.972;5.668;2023-06-22T06:26:26;27.8;47.8
78479;SHT31;67769;51.972;5.668;2023-06-22T06:29:00;28.0;47.8
78479;SHT31;67769;51.972;5.668;2023-06-22T06:31:30;28.2;47.3
78479;SHT31;67769;51.972;5.668;2023-06-22T06:34:02;28.4;46.9
78479;SHT31;67769;51.972;5.668;2023-06-22T06:36:32;28.6;46.6
78479;SHT31;67769;51.972;5.668;2023-06-22T06:39:01;28.8;46.3
78479;SHT31;67769;51.972;5.668;2023-06-22T06:41:34;29.1;45.6
78479;SHT31;67769;51.972;5.668;2023-06-22T06:44:06;29.4;45.1
78479;SHT31;67769;51.972;5.668;2023-06-22T06:46:35;29.7;44.7
78479;SHT31;67769;51.972;5.668;2023-06-22T06:49:05;29.8;44.4
78479;SHT31;67769;51.972;5.668;2023-06-22T06:51:34;30.0;43.7
78479;SHT31;67769;51.972;5.668;2023-06-22T06:54:04;30.1;43.1
78479;SHT31;67769;51.972;5.668;2023-06-22T06:56:34;30.2;42.7
78479;SHT31;67769;51.972;5.668;2023-06-22T06:59:03;30.3;42.4
78479;SHT31;67769;51.972;5.668;2023-06-22T07:01:33;30.3;42.2
78479;SHT31;67769;51.972;5.668;2023-06-22T07:04:03;30.3;42.0
78479;SHT31;67769;51.972;5.668;2023-06-22T07:06:33;30.4;41.8
78479;SHT31;67769;51.972;5.668;2023-06-22T07:09:03;30.4;41.5
78479;SHT31;67769;51.972;5.668;2023-06-22T07:11:33;30.4;41.3
78479;SHT31;67769;51.972;5.668;2023-06-22T07:14:04;30.4;41.3
78479;SHT31;67769;51.972;5.668;2023-06-22T07:16:33;30.4;41.3
78479;SHT31;67769;51.972;5.668;2023-06-22T07:19:03;30.4;41.4
78479;SHT31;67769;51.972;5.668;2023-06-22T07:21:32;30.5;41.7
78479;SHT31;67769;51.972;5.668;2023-06-22T07:24:02;30.5;41.5
78479;SHT31;67769;51.972;5.668;2023-06-22T07:26:33;30.6;41.5
78479;SHT31;67769;51.972;5.668;2023-06-22T07:29:03;30.7;40.9
78479;SHT31;67769;51.972;5.668;2023-06-22T07:31:32;30.9;40.8
78479;SHT31;67769;51.972;5.668;2023-06-22T07:34:02;31.0;40.9
78479;SHT31;67769;51.972;5.668;2023-06-22T07:36:32;31.1;40.0
78479;SHT31;67769;51.972;5.668;2023-06-22T07:39:03;31.3;39.6
78479;SHT31;67769;51.972;5.668;2023-06-22T07:41:33;31.5;39.2
78479;SHT31;67769;51.972;5.668;2023-06-22T07:44:09;31.7;38.8
78479;SHT31;67769;51.972;5.668;2023-06-22T07:46:39;32.0;38.4
78479;SHT31;67769;51.972;5.668;2023-06-22T07:49:09;32.2;37.3
78479;SHT31;67769;51.972;5.668;2023-06-22T07:51:38;32.3;36.8
78479;SHT31;67769;51.972;5.668;2023-06-22T07:54:09;32.3;36.7
78479;SHT31;67769;51.972;5.668;2023-06-22T07:56:39;32.2;37.3
78479;SHT31;67769;51.972;5.668;2023-06-22T07:59:10;32.1;37.1
78479;SHT31;67769;51.972;5.668;2023-06-22T08:01:42;32.0;37.0
78479;SHT31;67769;51.972;5.668;2023-06-22T08:04:11;31.9;37.1
78479;SHT31;67769;51.972;5.668;2023-06-22T08:06:41;31.8;36.9
78479;SHT31;67769;51.972;5.668;2023-06-22T08:09:11;31.7;37.4
78479;SHT31;67769;51.972;5.668;2023-06-22T08:11:40;31.6;37.6
78479;SHT31;67769;51.972;5.668;2023-06-22T08:14:12;31.5;37.6
78479;SHT31;67769;51.972;5.668;2023-06-22T08:16:41;31.4;37.9
78479;SHT31;67769;51.972;5.668;2023-06-22T08:19:11;31.3;38.2
78479;SHT31;67769;51.972;5.668;2023-06-22T08:21:41;31.2;38.8
78479;SHT31;67769;51.972;5.668;2023-06-22T08:24:10;31.2;38.8
78479;SHT31;67769;51.972;5.668;2023-06-22T08:26:40;31.1;39.1
78479;SHT31;67769;51.972;5.668;2023-06-22T08:29:11;31.1;38.8
78479;SHT31;67769;51.972;5.668;2023-06-22T08:31:43;31.1;38.3
78479;SHT31;67769;51.972;5.668;2023-06-22T08:34:13;31.0;38.2
78479;SHT31;67769;51.972;5.668;2023-06-22T08:36:43;31.0;38.0
78479;SHT31;67769;51.972;5.668;2023-06-22T08:39:17;30.9;38.0
78479;SHT31;67769;51.972;5.668;2023-06-22T08:41:47;30.9;38.8
78479;SHT31;67769;51.972;5.668;2023-06-22T08:44:18;30.8;39.0
78479;SHT31;67769;51.972;5.668;2023-06-22T08:46:50;30.8;39.2
78479;SHT31;67769;51.972;5.668;2023-06-22T08:49:22;30.8;39.0
78479;SHT31;67769;51.972;5.668;2023-06-22T08:51:51;30.7;39.6
78479;SHT31;67769;51.972;5.668;2023-06-22T08:54:23;30.7;40.0
78479;SHT31;67769;51.972;5.668;2023-06-22T08:56:54;30.7;39.2
78479;SHT31;67769;51.972;5.668;2023-06-22T08:59:24;30.7;39.2
78479;SHT31;67769;51.972;5.668;2023-06-22T09:01:54;30.7;39.2
78479;SHT31;67769;51.972;5.668;2023-06-22T09:04:24;30.7;39.0
78479;SHT31;67769;51.972;5.668;2023-06-22T09:06:53;30.7;38.4
78479;SHT31;67769;51.972;5.668;2023-06-22T09:09:23;30.7;38.8
78479;SHT31;67769;51.972;5.668;2023-06-22T09:11:52;30.7;39.0
78479;SHT31;67769;51.972;5.668;2023-06-22T09:14:22;30.7;39.0
78479;SHT31;67769;51.972;5.668;2023-06-22T09:16:52;30.7;38.7
78479;SHT31;67769;51.972;5.668;2023-06-22T09:19:21;30.7;38.0
78479;SHT31;67769;51.972;5.668;2023-06-22T09:21:51;30.7;36.9
78479;SHT31;67769;51.972;5.668;2023-06-22T09:24:20;30.7;37.3
78479;SHT31;67769;51.972;5.668;2023-06-22T09:26:50;30.6;37.1
78479;SHT31;67769;51.972;5.668;2023-06-22T09:29:19;30.6;37.3
78479;SHT31;67769;51.972;5.668;2023-06-22T09:31:49;30.6;37.3
78479;SHT31;67769;51.972;5.668;2023-06-22T09:34:20;30.5;37.0
78479;SHT31;67769;51.972;5.668;2023-06-22T09:36:50;30.4;36.8
78479;SHT31;67769;51.972;5.668;2023-06-22T09:39:20;30.4;36.7
78479;SHT31;67769;51.972;5.668;2023-06-22T09:41:49;30.3;36.3
78479;SHT31;67769;51.972;5.668;2023-06-22T09:44:19;30.3;36.8
78479;SHT31;67769;51.972;5.668;2023-06-22T09:46:48;30.3;36.9
78479;SHT31;67769;51.972;5.668;2023-06-22T09:49:18;30.4;36.9
78479;SHT31;67769;51.972;5.668;2023-06-22T09:51:47;30.4;36.8
78479;SHT31;67769;51.972;5.668;2023-06-22T09:54:18;30.4;37.2
78479;SHT31;67769;51.972;5.668;2023-06-22T09:56:48;30.3;37.5
78479;SHT31;67769;51.972;5.668;2023-06-22T09:59:17;30.2;38.2
78479;SHT31;67769;51.972;5.668;2023-06-22T10:01:47;30.1;38.5
78479;SHT31;67769;51.972;5.668;2023-06-22T10:04:16;30.0;38.1
78479;SHT31;67769;51.972;5.668;2023-06-22T10:06:46;30.0;38.6
78479;SHT31;67769;51.972;5.668;2023-06-22T10:09:15;29.9;39.2
78479;SHT31;67769;51.972;5.668;2023-06-22T10:11:45;29.8;39.5
78479;SHT31;67769;51.972;5.668;2023-06-22T10:14:14;29.7;39.4
78479;SHT31;67769;51.972;5.668;2023-06-22T10:16:44;29.7;39.3
78479;SHT31;67769;51.972;5.668;2023-06-22T10:19:14;29.6;39.7
78479;SHT31;67769;51.972;5.668;2023-06-22T10:21:43;29.5;40.0
78479;SHT31;67769;51.972;5.668;2023-06-22T10:24:15;29.4;39.8
78479;SHT31;67769;51.972;5.668;2023-06-22T10:26:46;29.3;40.2
78479;SHT31;67769;51.972;5.668;2023-06-22T10:29:16;29.3;40.3
78479;SHT31;67769;51.972;5.668;2023-06-22T10:31:46;29.2;40.9
78479;SHT31;67769;51.972;5.668;2023-06-22T10:34:15;29.2;41.3
78479;SHT31;67769;51.972;5.668;2023-06-22T10:36:45;29.1;41.7
78479;SHT31;67769;51.972;5.668;2023-06-22T10:39:16;29.1;41.5
78479;SHT31;67769;51.972;5.668;2023-06-22T10:41:45;29.0;41.7
78479;SHT31;67769;51.972;5.668;2023-06-22T10:44:15;29.0;42.0
78479;SHT31;67769;51.972;5.668;2023-06-22T10:46:47;29.0;42.4
78479;SHT31;67769;51.972;5.668;2023-06-22T10:49:16;29.0;42.6
78479;SHT31;67769;51.972;5.668;2023-06-22T10:51:46;29.0;43.2
78479;SHT31;67769;51.972;5.668;2023-06-22T10:54:15;28.9;42.8
78479;SHT31;67769;51.972;5.668;2023-06-22T10:56:46;28.9;43.2
78479;SHT31;67769;51.972;5.668;2023-06-22T10:59:16;28.9;43.3
78479;SHT31;67769;51.972;5.668;2023-06-22T11:01:48;28.9;43.1
78479;SHT31;67769;51.972;5.668;2023-06-22T11:04:18;28.9;43.0
78479;SHT31;67769;51.972;5.668;2023-06-22T11:06:50;28.9;43.3
78479;SHT31;67769;51.972;5.668;2023-06-22T11:09:20;28.9;43.3
78479;SHT31;67769;51.972;5.668;2023-06-22T11:11:51;28.9;42.9
78479;SHT31;67769;51.972;5.668;2023-06-22T11:14:21;28.9;43.1
78479;SHT31;67769;51.972;5.668;2023-06-22T11:16:51;28.9;43.0
78479;SHT31;67769;51.972;5.668;2023-06-22T11:19:21;28.9;43.0
78479;SHT31;67769;51.972;5.668;2023-06-22T11:21:52;28.8;43.2
78479;SHT31;67769;51.972;5.668;2023-06-22T11:24:24;28.8;43.1
78479;SHT31;67769;51.972;5.668;2023-06-22T11:26:53;28.8;43.4
78479;SHT31;67769;51.972;5.668;2023-06-22T11:29:23;28.8;43.4
78479;SHT31;67769;51.972;5.668;2023-06-22T11:31:53;28.7;43.8
78479;SHT31;67769;51.972;5.668;2023-06-22T11:34:22;28.7;44.0
78479;SHT31;67769;51.972;5.668;2023-06-22T11:36:52;28.7;44.4
78479;SHT31;67769;51.972;5.668;2023-06-22T11:39:21;28.7;43.9
78479;SHT31;67769;51.972;5.668;2023-06-22T11:41:51;28.6;44.2
78479;SHT31;67769;51.972;5.668;2023-06-22T11:44:20;28.6;44.7
78479;SHT31;67769;51.972;5.668;2023-06-22T11:46:50;28.6;44.8
78479;SHT31;67769;51.972;5.668;2023-06-22T11:49:22;28.7;44.9
78479;SHT31;67769;51.972;5.668;2023-06-22T11:51:51;28.7;45.4
78479;SHT31;67769;51.972;5.668;2023-06-22T11:54:21;28.7;46.1
78479;SHT31;67769;51.972;5.668;2023-06-22T11:56:50;28.7;47.3
78479;SHT31;67769;51.972;5.668;2023-06-22T11:59:20;28.7;46.2
78479;SHT31;67769;51.972;5.668;2023-06-22T12:01:49;28.7;46.3
78479;SHT31;67769;51.972;5.668;2023-06-22T12:04:20;28.7;46.4
78479;SHT31;67769;51.972;5.668;2023-06-22T12:06:51;28.7;47.4
78479;SHT31;67769;51.972;5.668;2023-06-22T12:09:21;28.6;47.9
78479;SHT31;67769;51.972;5.668;2023-06-22T12:11:50;28.5;48.7
78479;SHT31;67769;51.972;5.668;2023-06-22T12:14:20;28.4;49.9
78479;SHT31;67769;51.972;5.668;2023-06-22T12:16:49;28.4;50.1
78479;SHT31;67769;51.972;5.668;2023-06-22T12:19:21;28.3;51.6
78479;SHT31;67769;51.972;5.668;2023-06-22T12:21:50;28.2;53.1
78479;SHT31;67769;51.972;5.668;2023-06-22T12:24:20;28.1;53.2
78479;SHT31;67769;51.972;5.668;2023-06-22T12:26:50;28.0;52.6
78479;SHT31;67769;51.972;5.668;2023-06-22T12:29:19;27.9;52.8
78479;SHT31;67769;51.972;5.668;2023-06-22T12:31:49;27.8;53.1
78479;SHT31;67769;51.972;5.668;2023-06-22T12:34:18;27.7;53.4
78479;SHT31;67769;51.972;5.668;2023-06-22T12:36:49;27.6;54.0
78479;SHT31;67769;51.972;5.668;2023-06-22T12:39:21;27.5;55.0
78479;SHT31;67769;51.972;5.668;2023-06-22T12:41:51;27.4;55.0
78479;SHT31;67769;51.972;5.668;2023-06-22T12:44:20;27.3;55.2
78479;SHT31;67769;51.972;5.668;2023-06-22T12:46:50;27.2;56.1
78479;SHT31;67769;51.972;5.668;2023-06-22T12:49:21;27.1;55.4
78479;SHT31;67769;51.972;5.668;2023-06-22T12:51:51;27.0;57.0
78479;SHT31;67769;51.972;5.668;2023-06-22T12:54:21;26.9;57.3
78479;SHT31;67769;51.972;5.668;2023-06-22T12:56:51;26.8;57.7
78479;SHT31;67769;51.972;5.668;2023-06-22T12:59:21;26.8;57.8
78479;SHT31;67769;51.972;5.668;2023-06-22T13:01:51;26.7;59.4
78479;SHT31;67769;51.972;5.668;2023-06-22T13:04:20;26.7;60.4
78479;SHT31;67769;51.972;5.668;2023-06-22T13:06:50;26.7;59.0
78479;SHT31;67769;51.972;5.668;2023-06-22T13:09:21;26.6;59.0
78479;SHT31;67769;51.972;5.668;2023-06-22T13:11:51;26.6;58.8
78479;SHT31;67769;51.972;5.668;2023-06-22T13:14:20;26.6;58.8
78479;SHT31;67769;51.972;5.668;2023-06-22T13:16:50;26.5;59.1
78479;SHT31;67769;51.972;5.668;2023-06-22T13:19:20;26.5;58.8
78479;SHT31;67769;51.972;5.668;2023-06-22T13:21:50;26.5;59.5
78479;SHT31;67769;51.972;5.668;2023-06-22T13:24:20;26.5;59.6
78479;SHT31;67769;51.972;5.668;2023-06-22T13:26:49;26.4;60.7
78479;SHT31;67769;51.972;5.668;2023-06-22T13:29:19;26.4;60.5
78479;SHT31;67769;51.972;5.668;2023-06-22T13:31:48;26.4;60.4
78479;SHT31;67769;51.972;5.668;2023-06-22T13:34:18;26.3;61.7
78479;SHT31;67769;51.972;5.668;2023-06-22T13:36:47;26.3;61.6
78479;SHT31;67769;51.972;5.668;2023-06-22T13:39:17;26.2;62.0
78479;SHT31;67769;51.972;5.668;2023-06-22T13:41:46;26.2;61.5
78479;SHT31;67769;51.972;5.668;2023-06-22T13:44:16;26.2;61.1
78479;SHT31;67769;51.972;5.668;2023-06-22T13:46:46;26.1;61.3
78479;SHT31;67769;51.972;5.668;2023-06-22T13:49:17;26.2;62.4
78479;SHT31;67769;51.972;5.668;2023-06-22T13:51:46;26.2;62.3
78479;SHT31;67769;51.972;5.668;2023-06-22T13:54:21;26.3;60.7
78479;SHT31;67769;51.972;5.668;2023-06-22T13:56:51;26.3;61.2
78479;SHT31;67769;51.972;5.668;2023-06-22T13:59:21;26.3;60.5
78479;SHT31;67769;51.972;5.668;2023-06-22T14:01:51;26.2;61.8
78479;SHT31;67769;51.972;5.668;2023-06-22T14:04:22;26.2;62.1
78479;SHT31;67769;51.972;5.668;2023-06-22T14:06:52;26.1;61.4
78479;SHT31;67769;51.972;5.668;2023-06-22T14:09:23;26.0;61.0
78479;SHT31;67769;51.972;5.668;2023-06-22T14:11:54;26.0;61.9
78479;SHT31;67769;51.972;5.668;2023-06-22T14:14:24;25.9;62.2
78479;SHT31;67769;51.972;5.668;2023-06-22T14:16:54;25.8;62.3
78479;SHT31;67769;51.972;5.668;2023-06-22T14:19:24;25.7;62.0
78479;SHT31;67769;51.972;5.668;2023-06-22T14:21:53;25.7;62.6
78479;SHT31;67769;51.972;5.668;2023-06-22T14:24:24;25.6;63.8
78479;SHT31;67769;51.972;5.668;2023-06-22T14:26:53;25.5;62.5
78479;SHT31;67769;51.972;5.668;2023-06-22T14:29:23;25.4;62.5
78479;SHT31;67769;51.972;5.668;2023-06-22T14:31:53;25.4;62.4
78479;SHT31;67769;51.972;5.668;2023-06-22T14:34:22;25.3;62.7
78479;SHT31;67769;51.972;5.668;2023-06-22T14:36:52;25.2;62.0
78479;SHT31;67769;51.972;5.668;2023-06-22T14:39:22;25.1;62.1
78479;SHT31;67769;51.972;5.668;2023-06-22T14:41:53;25.0;62.6
78479;SHT31;67769;51.972;5.668;2023-06-22T14:44:23;24.9;62.9
78479;SHT31;67769;51.972;5.668;2023-06-22T14:46:52;24.8;63.5
78479;SHT31;67769;51.972;5.668;2023-06-22T14:49:22;24.7;63.6
78479;SHT31;67769;51.972;5.668;2023-06-22T14:51:52;24.6;63.5
78479;SHT31;67769;51.972;5.668;2023-06-22T14:54:21;24.5;64.5
78479;SHT31;67769;51.972;5.668;2023-06-22T14:56:51;24.5;64.5
78479;SHT31;67769;51.972;5.668;2023-06-22T14:59:20;24.4;64.3
78479;SHT31;67769;51.972;5.668;2023-06-22T15:01:50;24.3;64.2
78479;SHT31;67769;51.972;5.668;2023-06-22T15:04:20;24.2;64.4
78479;SHT31;67769;51.972;5.668;2023-06-22T15:06:49;24.2;65.4
78479;SHT31;67769;51.972;5.668;2023-06-22T15:09:19;24.1;65.2
78479;SHT31;67769;51.972;5.668;2023-06-22T15:11:48;24.1;66.0
78479;SHT31;67769;51.972;5.668;2023-06-22T15:14:20;24.1;66.2
78479;SHT31;67769;51.972;5.668;2023-06-22T15:16:50;24.0;66.6
78479;SHT31;67769;51.972;5.668;2023-06-22T15:19:19;24.0;66.9
78479;SHT31;67769;51.972;5.668;2023-06-22T15:21:49;24.0;66.6
78479;SHT31;67769;51.972;5.668;2023-06-22T15:24:18;24.0;67.1
78479;SHT31;67769;51.972;5.668;2023-06-22T15:26:48;23.9;67.2
78479;SHT31;67769;51.972;5.668;2023-06-22T15:29:18;23.9;67.6
78479;SHT31;67769;51.972;5.668;2023-06-22T15:31:47;23.9;67.2
78479;SHT31;67769;51.972;5.668;2023-06-22T15:34:17;23.9;67.9
78479;SHT31;67769;51.972;5.668;2023-06-22T15:36:47;23.9;67.8
78479;SHT31;67769;51.972;5.668;2023-06-22T15:39:16;23.9;67.8
78479;SHT31;67769;51.972;5.668;2023-06-22T15:41:46;23.8;67.8
78479;SHT31;67769;51.972;5.668;2023-06-22T15:44:16;23.8;68.1
78479;SHT31;67769;51.972;5.668;2023-06-22T15:46:45;23.8;68.5
78479;SHT31;67769;51.972;5.668;2023-06-22T15:49:16;23.8;68.7
78479;SHT31;67769;51.972;5.668;2023-06-22T15:51:46;23.9;68.4
78479;SHT31;67769;51.972;5.668;2023-06-22T15:54:19;24.0;68.4
78479;SHT31;67769;51.972;5.668;2023-06-22T15:56:49;24.1;67.6
78479;SHT31;67769;51.972;5.668;2023-06-22T15:59:18;24.1;67.5
78479;SHT31;67769;51.972;5.668;2023-06-22T16:01:48;24.2;67.4
78479;SHT31;67769;51.972;5.668;2023-06-22T16:04:17;24.2;67.2
78479;SHT31;67769;51.972;5.668;2023-06-22T16:06:47;24.2;67.5
78479;SHT31;67769;51.972;5.668;2023-06-22T16:09:17;24.2;67.3
78479;SHT31;67769;51.972;5.668;2023-06-22T16:11:49;24.2;67.6
78479;SHT31;67769;51.972;5.668;2023-06-22T16:14:19;24.2;67.7
78479;SHT31;67769;51.972;5.668;2023-06-22T16:16:49;24.2;67.9
78479;SHT31;67769;51.972;5.668;2023-06-22T16:19:20;24.2;68.2
78479;SHT31;67769;51.972;5.668;2023-06-22T16:21:50;24.2;68.0
78479;SHT31;67769;51.972;5.668;2023-06-22T16:24:22;24.2;67.7
78479;SHT31;67769;51.972;5.668;2023-06-22T16:26:53;24.2;67.3